Weather reports worldwide

Advertisment
Venezia Lido, Italy (16101): temperature & dewpoint: 12.10.2018 19:00:00 - 18.10.2018 19:00:00 (CEST)Venezia Lido, Italy (16101): wind speed: 12.10.2018 19:00:00 - 18.10.2018 19:00:00 (CEST)Venezia Lido, Italy (16101): wind direction: 12.10.2018 19:00:00 - 18.10.2018 19:00:00 (CEST)Venezia Lido, Italy (16101): reduced air pressure: 12.10.2018 19:00:00 - 18.10.2018 19:00:00 (CEST)Venezia Lido, Italy (16101): precipitation: 12.10.2018 19:00:00 - 18.10.2018 19:00:00 (CEST)
Date & Time tt [°C] td [°C] ff [km/h] ff [kn] dd ppp [hPa] rr [mm]
18.10.2018 19:00:00 - - - - - - -
18.10.2018 18:00:00 18,8 14,6 2 1 WSW 1015,4 -
18.10.2018 17:00:00 19,8 15,6 4 2 SSW 1015,2 -
18.10.2018 16:00:00 20,7 15,2 5 3 S 1015,4 -
18.10.2018 15:00:00 22,3 14,6 8 4 SSE 1015,5 -
18.10.2018 14:00:00 22,2 14,7 4 2 NNE 1016,0 0,0
18.10.2018 13:00:00 21,3 15,3 5 3 NE 1016,5 -
18.10.2018 12:00:00 18,9 14,5 5 3 NNE 1016,9 -
18.10.2018 11:00:00 18,0 14,8 5 3 NNE 1017,0 -
18.10.2018 10:00:00 16,5 14,8 5 3 NNW 1017,0 -
18.10.2018 09:00:00 14,9 13,2 5 3 N 1016,8 -
18.10.2018 08:00:00 14,5 12,8 5 3 NNE 1016,2 0,0
18.10.2018 07:00:00 14,7 13,0 2 1 NNW 1016,4 -
18.10.2018 06:00:00 14,9 13,2 5 3 NNE 1016,4 -
18.10.2018 05:00:00 14,7 13,0 4 2 N 1016,5 -
18.10.2018 04:00:00 14,9 13,2 4 2 NNW 1017,0 -
18.10.2018 03:00:00 14,5 12,8 4 2 N 1017,3 -
18.10.2018 02:00:00 15,2 13,5 4 2 NNE 1017,6 0,0
18.10.2018 01:00:00 15,6 13,9 4 2 N 1018,0 -
18.10.2018 00:00:00 15,7 14,0 4 2 NNE 1018,3 -
17.10.2018 23:00:00 16,1 14,4 4 2 N 1018,6 -
17.10.2018 22:00:00 16,0 14,3 4 2 N 1018,7 -
17.10.2018 21:00:00 16,0 14,3 4 2 NNE 1018,3 -
17.10.2018 20:00:00 16,5 14,8 4 2 ENE 1018,3 -
17.10.2018 19:00:00 16,8 15,1 5 3 ENE 1018,3 -
17.10.2018 18:00:00 17,0 14,9 8 4 ENE 1017,9 -
17.10.2018 17:00:00 17,6 15,2 5 3 ENE 1018,2 -
17.10.2018 16:00:00 17,5 15,8 4 2 ENE 1018,5 -
17.10.2018 15:00:00 17,4 15,7 9 5 ESE 1018,8 -
17.10.2018 14:00:00 16,6 14,7 5 3 ENE 1019,2 -
17.10.2018 13:00:00 16,9 13,7 8 4 ENE 1019,6 -
17.10.2018 12:00:00 17,0 13,3 11 6 E 1019,9 -
17.10.2018 11:00:00 16,4 13,6 8 4 ENE 1019,9 -
17.10.2018 10:00:00 15,0 13,0 5 3 ENE 1020,2 -
17.10.2018 09:00:00 14,6 12,8 4 2 NNE 1019,9 -
17.10.2018 08:00:00 14,8 12,8 5 3 NE 1019,5 0,0
17.10.2018 07:00:00 14,6 12,9 5 3 NE 1019,3 -
17.10.2018 06:00:00 14,5 12,8 5 3 NE 1019,2 -
17.10.2018 05:00:00 14,2 12,6 5 3 NE 1019,3 -
17.10.2018 04:00:00 14,5 12,8 5 3 NNE 1019,7 -
17.10.2018 03:00:00 14,5 12,8 2 1 NE 1020,3 -
17.10.2018 02:00:00 14,9 13,2 4 2 NE 1020,5 0,0
17.10.2018 01:00:00 15,5 13,8 2 1 NNE 1020,7 -
17.10.2018 00:00:00 15,8 14,1 4 2 NE 1020,8 -
16.10.2018 23:00:00 16,1 14,4 4 2 NE 1021,0 -
16.10.2018 22:00:00 16,1 14,4 4 2 NNE 1021,1 -
16.10.2018 21:00:00 15,6 13,6 4 2 NE 1021,0 -
16.10.2018 20:00:00 16,4 13,8 4 2 NE 1021,1 0,0
16.10.2018 19:00:00 17,3 14,1 4 2 E 1021,1 -
16.10.2018 18:00:00 18,1 14,7 5 3 SE 1020,8 -
16.10.2018 17:00:00 18,7 14,3 5 3 SE 1021,0 -
16.10.2018 16:00:00 19,6 13,2 9 5 E 1020,8 -
16.10.2018 15:00:00 19,3 13,4 9 5 E 1020,7 -
16.10.2018 14:00:00 18,4 12,6 9 5 ENE 1021,0 0,0
16.10.2018 13:00:00 18,0 12,0 11 6 E 1021,2 -
16.10.2018 12:00:00 16,6 12,9 5 3 ENE 1021,5 -
16.10.2018 11:00:00 15,4 12,1 8 4 ENE 1021,1 -
16.10.2018 10:00:00 14,1 12,3 5 3 NE 1021,1 -
16.10.2018 09:00:00 13,3 11,7 8 4 NE 1020,8 -
16.10.2018 08:00:00 13,3 11,7 5 3 NE 1020,2 0,0
16.10.2018 07:00:00 13,3 11,7 5 3 NE 1020,0 -
16.10.2018 06:00:00 13,4 11,8 5 3 NE 1020,1 -
16.10.2018 05:00:00 13,4 11,8 5 3 NE 1019,8 -
16.10.2018 04:00:00 13,8 12,2 5 3 ENE 1020,2 -
16.10.2018 03:00:00 13,8 12,2 5 3 NE 1020,5 -
16.10.2018 02:00:00 14,5 12,8 4 2 NE 1020,5 0,0
16.10.2018 01:00:00 14,6 12,6 8 4 ENE 1020,4 -
16.10.2018 00:00:00 14,7 12,5 5 3 NE 1020,5 -
15.10.2018 23:00:00 15,4 13,0 5 3 ENE 1020,5 -
15.10.2018 22:00:00 15,7 12,9 8 4 ENE 1020,7 -
15.10.2018 21:00:00 15,7 12,8 9 5 ENE 1020,6 -
15.10.2018 20:00:00 16,3 13,7 8 4 E 1020,5 0,0
15.10.2018 19:00:00 16,2 13,2 5 3 ENE 1020,4 -
15.10.2018 18:00:00 17,3 14,3 9 5 E 1019,7 -
15.10.2018 17:00:00 18,5 14,7 13 7 ESE 1019,6 -
15.10.2018 16:00:00 18,8 15,0 13 7 E 1019,5 -
15.10.2018 15:00:00 19,3 15,3 13 7 E 1019,5 -
15.10.2018 14:00:00 19,2 14,8 15 8 E 1019,7 0,0
15.10.2018 13:00:00 17,9 13,9 11 6 ENE 1020,0 -
15.10.2018 12:00:00 16,7 12,8 9 5 ENE 1020,0 -
15.10.2018 11:00:00 16,6 11,9 13 7 ENE 1019,7 -
15.10.2018 10:00:00 15,3 11,8 9 5 ENE 1019,5 -
15.10.2018 09:00:00 13,9 11,2 5 3 NE 1019,1 -
15.10.2018 08:00:00 14,2 10,8 8 4 ENE 1018,8 0,0
15.10.2018 07:00:00 13,8 10,9 11 6 E 1018,3 -
15.10.2018 06:00:00 14,0 11,3 9 5 ENE 1018,4 -
15.10.2018 05:00:00 14,1 11,4 13 7 E 1018,4 -
15.10.2018 04:00:00 14,6 11,3 11 6 ENE 1018,7 -
15.10.2018 03:00:00 14,4 11,9 8 4 ENE 1019,0 -
15.10.2018 02:00:00 15,0 12,7 5 3 NE 1019,2 0,0
15.10.2018 01:00:00 15,5 13,8 8 4 ENE 1019,3 -
15.10.2018 00:00:00 15,7 14,2 4 2 NE 1019,4 -
14.10.2018 23:00:00 15,2 13,5 4 2 NE 1019,4 -
14.10.2018 22:00:00 15,7 14,0 0 0 N 1019,4 -
14.10.2018 21:00:00 15,7 14,0 4 2 ESE 1019,2 -
14.10.2018 20:00:00 15,5 12,8 4 2 S 1019,0 0,0
14.10.2018 19:00:00 17,3 13,9 4 2 S 1018,8 -
14.10.2018 18:00:00 18,9 14,9 4 2 S 1018,7 -
14.10.2018 17:00:00 20,2 16,0 5 3 SSE 1018,8 -
14.10.2018 16:00:00 20,2 14,9 8 4 SSE 1019,3 -
14.10.2018 15:00:00 20,7 13,6 11 6 SE 1019,6 -
14.10.2018 14:00:00 20,7 13,3 13 7 SE 1020,2 0,0
14.10.2018 13:00:00 20,8 12,4 13 7 ESE 1020,9 -
14.10.2018 12:00:00 19,4 11,6 13 7 E 1021,2 -
14.10.2018 11:00:00 17,7 11,7 11 6 ENE 1021,4 -
14.10.2018 10:00:00 16,6 11,7 13 7 E 1021,5 -
14.10.2018 09:00:00 15,2 11,2 13 7 E 1021,3 -
14.10.2018 08:00:00 14,0 10,4 15 8 ENE 1021,0 0,0
14.10.2018 07:00:00 13,9 10,7 15 8 E 1021,1 -
14.10.2018 06:00:00 14,0 11,3 11 6 ENE 1021,3 -
14.10.2018 05:00:00 14,1 11,0 16 9 E 1021,4 -
14.10.2018 04:00:00 14,4 11,1 15 8 E 1021,6 -
14.10.2018 03:00:00 14,8 11,3 16 9 E 1021,8 -
14.10.2018 02:00:00 14,7 11,4 9 5 ENE 1022,0 0,0
14.10.2018 01:00:00 14,7 10,7 8 4 ENE 1022,2 -
14.10.2018 00:00:00 15,6 11,1 8 4 NE 1022,4 -
13.10.2018 23:00:00 16,5 11,6 5 3 NE 1022,7 -
13.10.2018 22:00:00 16,5 12,6 9 5 ENE 1022,7 -
13.10.2018 21:00:00 14,7 12,2 5 3 E 1022,8 -
13.10.2018 20:00:00 15,1 11,5 0 0 N 1022,8 0,0
13.10.2018 19:00:00 17,4 12,8 4 2 NW 1022,6 -
13.10.2018 18:00:00 20,5 13,8 2 1 WSW 1022,5 -
13.10.2018 17:00:00 20,9 16,0 4 2 SSE 1022,7 -
13.10.2018 16:00:00 21,2 15,7 8 4 SSE 1023,0 -
13.10.2018 15:00:00 21,3 14,4 11 6 SE 1023,2 -
13.10.2018 14:00:00 21,4 14,2 15 8 ESE 1023,8 -
13.10.2018 13:00:00 21,4 13,5 13 7 E 1024,4 -
13.10.2018 12:00:00 19,6 13,2 11 6 ENE 1025,0 -
13.10.2018 11:00:00 17,9 13,3 9 5 ENE 1025,1 -
13.10.2018 10:00:00 15,9 12,8 11 6 ENE 1025,2 -
13.10.2018 09:00:00 14,0 12,4 5 3 NE 1025,3 -
13.10.2018 08:00:00 13,0 11,4 8 4 NE 1025,0 0,0
13.10.2018 07:00:00 12,9 11,3 5 3 NNE 1024,7 -
13.10.2018 06:00:00 13,6 12,0 4 2 NE 1024,6 -
13.10.2018 05:00:00 13,6 12,0 4 2 NE 1024,7 -
13.10.2018 04:00:00 14,2 12,7 8 4 ENE 1024,9 -
13.10.2018 03:00:00 14,6 13,1 5 3 NE 1025,1 -
13.10.2018 02:00:00 14,7 13,0 4 2 NE 1025,1 0,0
13.10.2018 01:00:00 15,5 13,8 4 2 NE 1025,5 -
13.10.2018 00:00:00 15,3 13,6 2 1 NW 1025,6 -
12.10.2018 23:00:00 16,4 14,7 4 2 W 1025,9 -
12.10.2018 22:00:00 17,3 15,6 4 2 W 1025,8 -
12.10.2018 21:00:00 15,5 12,9 2 1 W 1025,7 -
12.10.2018 20:00:00 16,6 12,9 2 1 SW 1025,4 0,0
12.10.2018 19:00:00 17,8 12,4 0 0 N 1024,9 -

tt = temperature
td = dewpoint
ff = wind speed
dd = wind direction
ppp = reduced air pressure
rr = precipitation

Next stations